Time;durP1;ratioP1;P1;durP2;ratioP2;P2;SDS_P1;SDS_P2;PMS_P1;PMS_P2;Temp;Humidity;BMP_temperature;BMP_pressure;BME280_temperature;BME280_humidity;BME280_pressure;Samples;Min_cycle;Max_cycle;Signal;HPM_P1;HPM_P2
2022/05/26 00:01:06;;;;;;;69.20;38.97;;;;;;;20.61;91.51;99982.94;5121503;28;20267;-72
2022/05/26 00:03:37;;;;;;;68.85;38.78;;;;;;;20.53;91.58;99971.63;5120059;28;20100;-72
2022/05/26 00:06:05;;;;;;;67.82;37.42;;;;;;;20.31;93.29;99984.63;5120276;28;20027;-72
2022/05/26 00:08:30;;;;;;;67.85;37.90;;;;;;;20.14;94.79;99986.22;5123231;28;20039;-72
2022/05/26 00:10:56;;;;;;;81.03;41.78;;;;;;;20.36;93.24;99984.78;5121955;28;20352;-72
2022/05/26 00:13:21;;;;;;;73.10;42.85;;;;;;;20.34;93.46;99976.94;5120592;28;20061;-72
2022/05/26 00:15:48;;;;;;;84.60;45.17;;;;;;;20.40;92.95;99983.34;5120059;28;20072;-72
2022/05/26 00:18:14;;;;;;;90.22;46.63;;;;;;;20.27;93.62;99994.16;5120182;28;20042;-72
2022/05/26 00:20:39;;;;;;;83.20;45.47;;;;;;;20.33;93.39;99996.81;5120666;28;20048;-72
2022/05/26 00:23:05;;;;;;;79.80;46.42;;;;;;;20.26;93.84;99992.53;5120323;28;20186;-71
2022/05/26 00:25:31;;;;;;;85.47;46.78;;;;;;;20.19;94.36;99991.75;5121096;28;20368;-72
2022/05/26 00:27:56;;;;;;;75.40;44.05;;;;;;;20.24;94.24;99987.38;5119920;28;20046;-72
2022/05/26 00:30:22;;;;;;;82.22;45.38;;;;;;;20.26;93.65;99977.22;5120655;28;20352;-72
2022/05/26 00:32:48;;;;;;;77.43;44.40;;;;;;;20.08;94.76;99971.78;5098004;28;20294;-72
2022/05/26 00:35:15;;;;;;;79.03;43.42;;;;;;;20.19;93.63;99964.88;5119469;28;20043;-72
2022/05/26 00:37:41;;;;;;;74.32;41.38;;;;;;;20.18;93.22;99965.91;5120690;28;20035;-71
2022/05/26 00:40:08;;;;;;;76.93;41.78;;;;;;;20.08;93.31;99979.84;5119612;28;20108;-72
2022/05/26 00:42:33;;;;;;;72.60;41.63;;;;;;;20.01;94.24;99981.75;5119841;28;20062;-72
2022/05/26 00:44:58;;;;;;;79.50;42.58;;;;;;;19.89;95.11;99978.94;5120826;28;20023;-72
2022/05/26 00:47:27;;;;;;;75.75;40.67;;;;;;;19.96;94.19;99968.13;5119685;28;20028;-72
2022/05/26 00:50:01;;;;;;;69.10;40.15;;;;;;;19.94;93.99;99962.97;5119907;28;20028;-72
2022/05/26 00:52:58;;;;;;;74.45;40.33;;;;;;;19.83;95.09;99984.34;5121692;28;20035;-72
2022/05/26 00:55:28;;;;;;;78.40;41.45;;;;;;;19.84;95.13;99984.13;5121643;28;20048;-72
2022/05/26 00:58:09;;;;;;;74.55;41.03;;;;;;;19.80;95.38;99988.28;5119396;28;20038;-72
2022/05/26 01:00:38;;;;;;;76.25;41.75;;;;;;;19.74;95.96;99983.75;5117559;28;20117;-72
2022/05/26 01:03:11;;;;;;;77.80;44.10;;;;;;;19.53;97.68;99992.13;5116050;28;20250;-71
2022/05/26 01:05:49;;;;;;;86.55;45.97;;;;;;;19.64;97.54;99984.22;5119595;28;20229;-72
2022/05/26 01:08:22;;;;;;;100.78;55.75;;;;;;;19.62;97.70;99974.72;5121748;28;20035;-72
2022/05/26 01:10:48;;;;;;;94.53;49.80;;;;;;;19.58;97.38;99976.19;5120430;28;20035;-72
2022/05/26 01:13:18;;;;;;;78.90;45.55;;;;;;;19.61;96.87;99973.09;5118649;28;20063;-72
2022/05/26 01:15:49;;;;;;;83.57;42.85;;;;;;;19.73;96.32;99972.19;5116462;28;20032;-72
2022/05/26 01:18:18;;;;;;;70.40;41.33;;;;;;;19.82;95.73;99974.66;5119168;28;20015;-72
2022/05/26 01:21:07;;;;;;;83.97;47.00;;;;;;;19.28;99.14;99974.03;5118653;28;20400;-71
2022/05/26 01:23:54;;;;;;;86.20;49.15;;;;;;;19.26;99.96;99972.59;5119407;28;20047;-71
2022/05/26 01:26:55;;;;;;;79.60;47.35;;;;;;;19.48;99.00;99965.06;5119525;28;20361;-72
2022/05/26 01:29:37;;;;;;;88.57;49.42;;;;;;;19.64;97.25;99969.97;5091965;28;20044;-71
2022/05/26 01:32:23;;;;;;;84.57;47.03;;;;;;;19.68;96.76;99966.63;5119663;28;20054;-72
2022/05/26 01:34:57;;;;;;;72.28;40.65;;;;;;;19.76;95.76;99966.38;5119447;28;20038;-72
2022/05/26 01:37:45;;;;;;;77.70;41.42;;;;;;;19.76;95.21;99962.88;5118519;28;20691;-72
2022/05/26 01:40:39;;;;;;;72.85;40.65;;;;;;;19.86;95.26;99960.56;5119531;28;20023;-72
2022/05/26 01:43:10;;;;;;;76.03;42.40;;;;;;;19.87;94.80;99966.75;5115658;28;20094;-72
2022/05/26 01:45:57;;;;;;;69.72;40.70;;;;;;;19.91;94.33;99960.72;5120105;28;20737;-72
2022/05/26 01:48:32;;;;;;;75.88;39.58;;;;;;;19.88;94.08;99960.34;5118437;28;20026;-72
2022/05/26 01:51:11;;;;;;;67.32;41.00;;;;;;;19.86;94.44;99962.41;5121328;28;20340;-72
2022/05/26 01:53:49;;;;;;;67.65;39.72;;;;;;;19.78;94.86;99947.38;5120335;28;20296;-72
2022/05/26 01:56:26;;;;;;;72.05;40.88;;;;;;;19.73;93.91;99931.06;5119269;28;20282;-72
2022/05/26 01:59:10;;;;;;;68.38;39.92;;;;;;;19.96;92.91;99960.91;5118593;28;20069;-72
2022/05/26 02:01:41;;;;;;;65.85;38.80;;;;;;;19.96;92.78;99954.69;5119712;28;20032;-71
2022/05/26 02:04:13;;;;;;;72.00;41.00;;;;;;;19.96;92.43;99960.06;5123106;28;20068;-72
2022/05/26 02:06:47;;;;;;;74.40;40.25;;;;;;;19.90;92.66;99966.31;5122719;28;20081;-72
2022/05/26 02:09:15;;;;;;;71.82;40.72;;;;;;;19.85;92.34;99960.78;5123534;28;20107;-72
2022/05/26 02:11:54;;;;;;;71.25;40.25;;;;;;;19.83;91.80;99950.25;5122314;28;20036;-72
2022/05/26 02:14:32;;;;;;;72.95;41.28;;;;;;;19.70;93.42;99966.41;5122236;28;20020;-71
2022/05/26 02:17:10;;;;;;;70.82;41.13;;;;;;;19.66;93.24;99974.09;5120682;28;20023;-72
2022/05/26 02:19:42;;;;;;;72.35;43.10;;;;;;;19.23;95.70;99978.41;5102775;28;20032;-72
2022/05/26 02:22:21;;;;;;;68.22;40.00;;;;;;;19.40;95.52;99979.56;5124681;28;20031;-72
2022/05/26 02:25:07;;;;;;;75.88;42.15;;;;;;;19.45;94.26;99982.44;5123210;28;20044;-71
2022/05/26 02:27:35;;;;;;;77.47;42.00;;;;;;;19.39;94.38;99976.06;5120762;28;20031;-72
2022/05/26 02:30:01;;;;;;;71.70;42.28;;;;;;;19.20;95.26;99963.53;5122289;28;20035;-72
2022/05/26 02:32:46;;;;;;;71.78;41.42;;;;;;;19.36;95.07;99971.13;5123828;28;20028;-72
2022/05/26 02:35:20;;;;;;;72.93;41.88;;;;;;;19.41;94.53;99978.53;5122773;28;20051;-72
2022/05/26 02:37:50;;;;;;;72.85;41.08;;;;;;;19.53;94.01;99974.16;5122862;28;20030;-72
2022/05/26 02:40:16;;;;;;;76.25;42.67;;;;;;;19.57;93.28;99977.25;5122174;28;20143;-72
2022/05/26 02:43:00;;;;;;;77.47;42.90;;;;;;;19.55;93.81;99974.78;5121698;28;20293;-72
2022/05/26 02:45:46;;;;;;;76.18;42.53;;;;;;;19.27;94.64;99974.25;5120614;28;20051;-72
2022/05/26 02:48:19;;;;;;;76.47;42.47;;;;;;;19.04;94.90;99980.94;5122351;28;20016;-72
2022/05/26 02:51:39;;;;;;;73.85;42.20;;;;;;;19.16;93.74;99994.53;5122294;28;20031;-72
2022/05/26 02:54:08;;;;;;;76.75;42.15;;;;;;;18.92;95.26;99993.34;5072140;28;20287;-71
2022/05/26 02:56:41;;;;;;;74.85;40.03;;;;;;;19.05;94.41;99990.63;5102961;28;20039;-72
2022/05/26 02:59:48;;;;;;;73.45;40.17;;;;;;;19.29;93.43;99982.91;5119288;27;20225;-71
2022/05/26 03:02:38;;;;;;;69.68;39.40;;;;;;;19.27;93.83;99990.34;5121657;28;20036;-71
2022/05/26 03:05:06;;;;;;;69.55;39.08;;;;;;;19.30;93.88;99992.63;5124521;28;20034;-72
2022/05/26 03:07:33;;;;;;;70.78;38.85;;;;;;;19.39;91.69;99992.16;5122755;28;20051;-72
2022/05/26 03:10:02;;;;;;;63.60;37.67;;;;;;;19.29;92.76;99993.66;5122323;28;20321;-72
2022/05/26 03:12:31;;;;;;;68.43;38.78;;;;;;;19.33;93.05;99987.66;5092786;28;20044;-71
2022/05/26 03:14:56;;;;;;;65.68;38.92;;;;;;;19.36;92.72;100000.66;5081637;28;20061;-71
2022/05/26 03:17:22;;;;;;;68.15;38.85;;;;;;;19.05;94.77;100000.56;5080675;28;20047;-72
2022/05/26 03:19:48;;;;;;;66.72;39.10;;;;;;;19.24;94.17;99996.97;5080534;28;20040;-71
2022/05/26 03:22:13;;;;;;;68.63;38.83;;;;;;;19.26;93.70;99986.03;5081454;28;20058;-72
2022/05/26 03:24:39;;;;;;;69.35;37.67;;;;;;;19.28;93.59;99994.69;5080285;28;20039;-72
2022/05/26 03:27:05;;;;;;;73.03;41.33;;;;;;;19.17;94.63;99977.38;5082417;28;20028;-72
2022/05/26 03:29:30;;;;;;;66.68;37.13;;;;;;;19.25;94.32;99974.47;5082912;28;20126;-72
2022/05/26 03:31:56;;;;;;;68.35;38.75;;;;;;;19.37;93.90;99978.13;5080734;28;20361;-72
2022/05/26 03:42:34;;;;;;;65.68;37.38;;;;;;;19.68;92.46;99971.19;5079912;28;20090;-72
2022/05/26 03:45:02;;;;;;;66.72;37.25;;;;;;;19.86;90.71;99970.47;5080534;28;20071;-72
2022/05/26 03:47:27;;;;;;;65.75;37.92;;;;;;;19.56;92.46;99991.72;5082965;28;20103;-72
2022/05/26 03:49:53;;;;;;;67.13;38.78;;;;;;;19.56;92.18;99968.34;5082443;28;20261;-72
2022/05/26 03:52:18;;;;;;;63.35;36.30;;;;;;;19.77;92.23;99983.34;5081157;28;20040;-72
2022/05/26 03:54:44;;;;;;;68.25;36.95;;;;;;;19.92;91.09;99980.38;5083794;28;20028;-72
2022/05/26 03:57:09;;;;;;;61.53;35.78;;;;;;;20.09;89.94;99965.34;5080421;28;20044;-71
2022/05/26 03:59:40;;;;;;;68.75;37.15;;;;;;;20.06;90.26;99972.00;5083641;28;20075;-71
2022/05/26 04:02:05;;;;;;;63.45;35.88;;;;;;;19.84;88.22;100004.81;5080678;28;20062;-71
2022/05/26 04:04:31;;;;;;;69.45;38.63;;;;;;;19.64;89.35;99986.09;5081730;28;20040;-71
2022/05/26 04:06:57;;;;;;;68.18;38.17;;;;;;;19.68;88.96;99990.81;5082252;28;20514;-71
2022/05/26 04:09:22;;;;;;;70.38;36.42;;;;;;;19.68;89.80;99998.88;5080696;28;20032;-71
2022/05/26 04:11:48;;;;;;;66.60;37.53;;;;;;;19.75;89.69;99991.59;5080305;28;20040;-72
2022/05/26 04:14:13;;;;;;;64.70;36.92;;;;;;;19.71;90.13;99973.44;5120289;28;20034;-72
2022/05/26 04:16:39;;;;;;;72.22;38.33;;;;;;;19.81;90.78;99987.25;5102275;28;20028;-72
2022/05/26 04:19:04;;;;;;;71.72;36.72;;;;;;;20.14;89.60;99984.34;5120057;28;20221;-71
2022/05/26 04:21:29;;;;;;;65.25;37.33;;;;;;;20.31;89.80;99981.94;5102438;28;20320;-72
2022/05/26 04:23:55;;;;;;;65.25;37.78;;;;;;;20.56;88.84;99982.78;5119601;28;20104;-72
2022/05/26 04:26:20;;;;;;;65.47;37.05;;;;;;;20.89;87.58;99990.56;5119661;28;20035;-72
2022/05/26 04:28:46;;;;;;;62.80;36.55;;;;;;;21.04;86.65;99982.94;5120630;28;20402;-72
2022/05/26 04:31:11;;;;;;;65.53;36.83;;;;;;;21.16;85.64;99980.31;5119353;28;20023;-72
2022/05/26 04:33:37;;;;;;;60.80;34.75;;;;;;;21.29;85.33;99988.25;5121608;28;20102;-71
2022/05/26 04:36:06;;;;;;;65.43;37.88;;;;;;;21.38;85.03;99986.06;5104068;28;20031;-72
2022/05/26 04:38:32;;;;;;;61.53;35.90;;;;;;;21.53;84.66;99993.75;5120146;28;20337;-72
2022/05/26 04:41:02;;;;;;;65.40;35.83;;;;;;;21.90;82.93;99991.81;5119519;28;20087;-72
2022/05/26 04:43:27;;;;;;;59.58;33.97;;;;;;;22.12;81.88;99994.84;5118317;28;20077;-72
2022/05/26 04:45:53;;;;;;;64.50;34.80;;;;;;;22.44;80.59;99996.19;5104191;28;20023;-72
2022/05/26 04:48:21;;;;;;;62.17;35.53;;;;;;;22.61;78.93;99997.13;5119771;28;20038;-72
2022/05/26 04:50:50;;;;;;;63.70;35.70;;;;;;;22.71;79.09;99998.41;5119507;28;20035;-72
2022/05/26 04:53:17;;;;;;;59.20;34.78;;;;;;;22.75;78.53;100013.91;5116795;28;20103;-72
2022/05/26 04:55:43;;;;;;;57.53;32.40;;;;;;;23.08;78.04;100034.16;5120014;28;20065;-72
2022/05/26 04:58:08;;;;;;;58.30;32.97;;;;;;;23.52;75.79;100028.06;5119436;28;20028;-72
2022/05/26 05:00:34;;;;;;;54.75;34.20;;;;;;;23.84;74.82;100025.75;5101789;28;20364;-72
2022/05/26 05:03:00;;;;;;;55.20;32.95;;;;;;;23.84;74.61;100016.81;5119181;28;20043;-72
2022/05/26 05:05:25;;;;;;;56.08;33.00;;;;;;;24.09;74.23;100013.78;5119272;28;20033;-72
2022/05/26 05:07:51;;;;;;;56.55;33.35;;;;;;;23.98;74.28;100001.13;5119977;28;20021;-72
2022/05/26 05:10:16;;;;;;;62.28;34.67;;;;;;;23.90;74.48;100010.44;5120144;28;20038;-72
2022/05/26 05:12:42;;;;;;;61.88;34.10;;;;;;;23.66;76.01;99998.06;5121703;28;20032;-72
2022/05/26 05:15:15;;;;;;;62.42;35.00;;;;;;;23.70;76.82;100007.34;5121057;28;20036;-72
2022/05/26 05:17:41;;;;;;;61.83;34.03;;;;;;;23.81;77.04;100007.28;5121325;28;20354;-72
2022/05/26 05:20:07;;;;;;;60.10;34.97;;;;;;;23.67;78.07;100013.22;5119823;28;20024;-72
2022/05/26 05:22:43;;;;;;;58.63;35.03;;;;;;;23.60;77.71;100015.25;5102607;28;20047;-72
2022/05/26 05:25:18;;;;;;;55.58;34.22;;;;;;;22.86;80.47;100021.22;5121691;28;20027;-72
2022/05/26 05:28:00;;;;;;;64.10;35.92;;;;;;;22.78;81.29;100009.94;5100943;28;20058;-72
2022/05/26 05:30:32;;;;;;;57.30;35.30;;;;;;;22.69;82.52;100005.94;5120362;28;20036;-72
2022/05/26 05:33:30;;;;;;;55.45;33.65;;;;;;;22.91;81.81;100015.16;5116354;28;20068;-72
2022/05/26 05:36:08;;;;;;;59.50;35.97;;;;;;;23.14;81.16;100019.69;5101124;28;20051;-72
2022/05/26 05:38:38;;;;;;;58.92;34.85;;;;;;;23.31;80.98;100022.47;5117636;28;20296;-72
2022/05/26 05:41:04;;;;;;;59.47;36.28;;;;;;;23.15;81.17;100021.34;5117598;28;20029;-72
2022/05/26 05:43:31;;;;;;;67.10;35.40;;;;;;;23.44;81.32;100011.41;5118595;28;20395;-72
2022/05/26 05:45:57;;;;;;;52.65;33.63;;;;;;;23.81;79.80;100022.69;5120154;28;20110;-72
2022/05/26 05:48:23;;;;;;;59.75;33.67;;;;;;;23.83;79.09;100034.09;5121728;28;20031;-72
2022/05/26 05:50:48;;;;;;;56.35;34.13;;;;;;;23.77;78.83;100019.66;5121700;28;20050;-72
2022/05/26 05:53:15;;;;;;;61.13;34.65;;;;;;;23.86;78.33;100039.84;5120969;28;20031;-72
2022/05/26 05:55:41;;;;;;;59.70;33.30;;;;;;;23.81;78.08;100036.22;5121637;28;20102;-72
2022/05/26 05:58:08;;;;;;;63.92;34.13;;;;;;;23.83;78.91;100043.03;5121946;28;20051;-72
2022/05/26 06:00:34;;;;;;;61.05;34.90;;;;;;;24.16;78.05;100050.44;5121705;28;20236;-72
2022/05/26 06:03:00;;;;;;;57.47;33.20;;;;;;;24.59;75.93;100034.66;5121450;28;20031;-72
2022/05/26 06:05:26;;;;;;;49.08;31.08;;;;;;;24.71;74.99;100043.50;5121737;28;20095;-72
2022/05/26 06:07:52;;;;;;;53.78;31.92;;;;;;;24.84;74.46;100052.13;5121698;28;20198;-72
2022/05/26 06:10:17;;;;;;;55.17;31.75;;;;;;;24.94;74.38;100050.63;5121562;28;20043;-72
2022/05/26 06:12:43;;;;;;;52.08;30.50;;;;;;;25.03;73.45;100047.31;5121234;28;20065;-72
2022/05/26 06:15:09;;;;;;;55.63;30.25;;;;;;;24.95;73.88;100042.25;5121437;28;20439;-72
2022/05/26 06:17:35;;;;;;;52.97;30.60;;;;;;;25.02;73.56;100044.84;5102976;28;20035;-72
2022/05/26 06:20:01;;;;;;;48.60;29.58;;;;;;;24.98;74.26;100041.00;5121469;28;20038;-73
2022/05/26 06:22:29;;;;;;;50.03;31.38;;;;;;;25.23;72.22;100040.53;5121569;28;20055;-72
2022/05/26 06:24:54;;;;;;;51.83;28.58;;;;;;;25.44;71.25;100037.81;5121426;28;20028;-72
2022/05/26 06:30:09;;;;;;;49.90;24.58;;;;;;;25.45;70.64;100036.75;5121399;28;20038;-72
2022/05/26 06:38:18;;;;;;;38.13;22.05;;;;;;;26.17;67.21;100022.09;5121623;28;20370;-72
2022/05/26 06:40:44;;;;;;;42.45;22.33;;;;;;;26.48;65.67;100030.53;5121335;28;20065;-72
2022/05/26 06:43:10;;;;;;;41.20;21.30;;;;;;;26.73;65.26;100025.28;5121289;28;20043;-73
2022/05/26 06:45:36;;;;;;;49.75;22.50;;;;;;;27.20;63.80;100022.66;5118359;28;20330;-72
2022/05/26 06:48:02;;;;;;;39.63;21.65;;;;;;;27.60;62.33;100023.88;5118553;28;20103;-72
2022/05/26 06:50:28;;;;;;;40.00;21.10;;;;;;;27.88;60.93;100017.19;5120865;28;20040;-72
2022/05/26 06:52:53;;;;;;;46.90;20.75;;;;;;;28.42;59.30;100014.03;5120537;28;20054;-73
2022/05/26 06:55:19;;;;;;;38.28;20.08;;;;;;;28.97;56.81;100018.59;5106625;28;20328;-72
2022/05/26 06:57:45;;;;;;;36.42;19.27;;;;;;;29.10;57.17;100014.47;5125104;28;20107;-73
2022/05/26 07:00:12;;;;;;;40.15;18.40;;;;;;;29.19;55.88;100010.13;5106021;28;20036;-72
2022/05/26 07:02:38;;;;;;;34.60;17.67;;;;;;;29.44;54.67;100014.69;5124898;28;20028;-72
2022/05/26 07:05:05;;;;;;;35.58;17.77;;;;;;;29.58;54.10;100007.50;5124779;28;20068;-72
2022/05/26 07:07:32;;;;;;;34.42;18.60;;;;;;;29.91;54.61;100018.78;5124674;28;20344;-73
2022/05/26 07:09:58;;;;;;;36.80;16.60;;;;;;;30.13;52.89;100002.81;5124511;28;20348;-73
2022/05/26 07:12:24;;;;;;;36.10;16.70;;;;;;;30.46;52.29;100009.41;5124477;27;20046;-73
2022/05/26 07:14:50;;;;;;;34.22;17.70;;;;;;;30.41;51.68;100020.38;5124234;28;20062;-73
2022/05/26 07:17:16;;;;;;;32.53;14.35;;;;;;;30.56;50.42;100019.44;5124297;28;20263;-73
2022/05/26 07:19:42;;;;;;;32.33;12.07;;;;;;;30.56;47.93;100016.69;5124342;28;20082;-72
2022/05/26 07:22:08;;;;;;;28.63;12.05;;;;;;;30.35;48.91;100013.31;5124771;28;20040;-72
2022/05/26 07:24:33;;;;;;;29.77;12.93;;;;;;;30.30;48.73;100019.66;5123952;28;20206;-72
2022/05/26 07:27:00;;;;;;;24.73;12.00;;;;;;;30.17;49.14;100021.13;5124184;27;20035;-72
2022/05/26 07:29:26;;;;;;;23.88;11.48;;;;;;;30.47;48.61;100024.69;5124472;28;20059;-72
2022/05/26 07:31:52;;;;;;;33.53;12.63;;;;;;;30.67;47.73;100018.25;5123753;28;20039;-72
2022/05/26 07:34:18;;;;;;;42.40;11.43;;;;;;;30.37;48.34;100017.41;5124262;28;20040;-72
2022/05/26 07:42:16;;;;;;;30.50;9.68;;;;;;;31.25;43.57;100015.50;5122934;28;20200;-72
2022/05/26 07:44:45;;;;;;;22.50;9.07;;;;;;;31.09;43.08;100026.56;5123483;28;20039;-72
2022/05/26 07:47:11;;;;;;;25.25;9.70;;;;;;;31.28;42.35;100013.00;5105499;28;20252;-73
2022/05/26 07:49:41;;;;;;;22.02;9.25;;;;;;;31.60;42.75;100017.78;5123638;28;20055;-72
2022/05/26 07:52:07;;;;;;;22.75;9.45;;;;;;;31.51;43.58;100016.81;5123929;28;20316;-73
2022/05/26 07:54:33;;;;;;;31.15;10.50;;;;;;;31.98;42.08;100023.28;5105070;27;20068;-72
2022/05/26 07:56:59;;;;;;;22.70;10.63;;;;;;;31.64;42.48;100024.28;5123654;28;20036;-73
2022/05/26 07:59:25;;;;;;;28.33;10.55;;;;;;;31.98;41.41;100020.56;5121747;28;20439;-73
2022/05/26 08:01:51;;;;;;;26.13;10.13;;;;;;;32.37;39.86;100023.81;5122837;28;20048;-73
2022/05/26 08:04:17;;;;;;;31.95;10.93;;;;;;;32.51;39.53;100028.53;5123549;28;20061;-70
2022/05/26 08:06:47;;;;;;;23.73;10.57;;;;;;;32.27;39.81;100023.16;5123515;28;20031;-72
2022/05/26 08:09:14;;;;;;;27.40;10.82;;;;;;;32.46;39.21;100021.19;5123269;28;20038;-73
2022/05/26 08:11:40;;;;;;;22.67;10.18;;;;;;;32.53;39.12;100012.59;5123471;28;20031;-73
2022/05/26 08:14:05;;;;;;;25.17;11.25;;;;;;;32.82;39.50;100026.88;5123251;28;20340;-72
2022/05/26 08:16:31;;;;;;;25.58;10.82;;;;;;;32.99;37.55;100029.84;5123111;28;20039;-72
2022/05/26 08:18:57;;;;;;;22.33;9.85;;;;;;;32.84;38.40;100018.34;5123093;28;20028;-73
2022/05/26 08:21:23;;;;;;;31.17;10.10;;;;;;;33.11;36.99;100014.81;5123373;28;20297;-73
2022/05/26 08:23:49;;;;;;;28.55;9.07;;;;;;;33.20;34.84;100021.22;5105114;28;20095;-71
2022/05/26 08:26:15;;;;;;;19.85;9.60;;;;;;;32.65;36.88;100023.88;5104707;28;20027;-71
2022/05/26 08:28:42;;;;;;;28.45;8.43;;;;;;;32.54;33.75;100026.00;5122986;28;20072;-70
2022/05/26 08:31:10;;;;;;;15.50;7.85;;;;;;;32.84;33.32;100021.91;5122918;28;20043;-70
2022/05/26 08:33:36;;;;;;;18.02;7.40;;;;;;;32.93;32.81;100016.53;5122921;28;20030;-72
2022/05/26 08:36:05;;;;;;;30.83;8.15;;;;;;;33.30;32.54;100010.91;5122895;28;20031;-73
2022/05/26 08:38:31;;;;;;;23.52;8.70;;;;;;;33.55;31.95;100015.03;5122470;28;20035;-70
2022/05/26 08:40:57;;;;;;;20.92;7.03;;;;;;;33.31;31.79;100006.22;5122934;28;20036;-70
2022/05/26 08:43:38;;;;;;;35.22;7.53;;;;;;;33.26;31.31;100012.56;5123223;28;20388;-70
2022/05/26 08:46:09;;;;;;;15.80;7.72;;;;;;;33.26;31.37;100011.75;5122637;28;20031;-70
2022/05/26 08:48:51;;;;;;;20.08;7.15;;;;;;;33.58;30.92;100005.38;5122275;28;20384;-70
2022/05/26 08:51:48;;;;;;;14.80;6.53;;;;;;;33.71;29.20;100000.97;5122626;28;20811;-70
2022/05/26 08:54:38;;;;;;;23.52;6.95;;;;;;;33.66;30.54;100007.38;5117443;28;20094;-70
2022/05/26 08:57:08;;;;;;;58.90;9.38;;;;;;;33.57;30.20;100003.75;5117875;28;20256;-71
2022/05/26 08:59:39;;;;;;;22.70;6.50;;;;;;;33.89;30.98;100009.09;5117480;28;20054;-70
2022/05/26 09:02:04;;;;;;;21.80;7.38;;;;;;;33.77;30.54;99989.56;5119207;28;20333;-71
2022/05/26 09:04:30;;;;;;;18.33;6.53;;;;;;;34.12;28.25;100006.34;5118270;28;20042;-70
2022/05/26 09:15:22;;;;;;;17.48;6.05;;;;;;;34.21;29.33;99997.03;5117701;28;20114;-70
2022/05/26 09:17:48;;;;;;;21.58;6.18;;;;;;;34.10;29.07;99998.41;5118173;28;20031;-70
2022/05/26 09:20:43;;;;;;;16.60;5.32;;;;;;;34.40;28.40;99996.91;5118742;28;20095;-71
2022/05/26 09:23:13;;;;;;;11.52;5.80;;;;;;;34.34;28.21;99987.16;5104565;28;20108;-71
2022/05/26 09:25:41;;;;;;;20.60;5.78;;;;;;;34.18;28.05;99983.13;5117992;28;20046;-70
2022/05/26 09:28:09;;;;;;;15.88;6.20;;;;;;;33.69;28.06;99989.47;5117073;28;20095;-70
2022/05/26 09:30:35;;;;;;;17.33;5.63;;;;;;;33.46;29.11;99991.38;5118354;28;20028;-70
2022/05/26 09:33:01;;;;;;;19.08;5.85;;;;;;;32.95;29.16;99993.19;5118311;28;20077;-70
2022/05/26 09:35:34;;;;;;;22.02;6.57;;;;;;;32.62;29.23;99997.88;5117861;28;20023;-70
2022/05/26 09:38:02;;;;;;;13.60;4.47;;;;;;;32.68;27.71;99996.69;5118911;28;20023;-70
2022/05/26 09:40:34;;;;;;;14.85;4.40;;;;;;;32.87;27.77;99991.13;5118569;28;20027;-70
2022/05/26 09:43:23;;;;;;;22.35;4.63;;;;;;;33.23;26.98;99983.00;5117603;28;20069;-71
2022/05/26 09:45:52;;;;;;;14.85;4.43;;;;;;;33.56;26.20;99974.66;5118671;28;20039;-71
2022/05/26 09:48:30;;;;;;;21.38;4.90;;;;;;;33.75;26.26;99983.56;5117844;28;20062;-70
2022/05/26 09:51:04;;;;;;;11.85;4.00;;;;;;;33.76;25.62;99978.88;5117480;28;20438;-71
2022/05/26 09:53:33;;;;;;;22.58;4.32;;;;;;;33.83;24.76;99982.84;5117438;28;20037;-70
2022/05/26 09:55:59;;;;;;;13.60;4.10;;;;;;;33.96;24.07;99989.41;5098347;28;20053;-70
2022/05/26 09:58:37;;;;;;;17.02;4.43;;;;;;;34.06;24.34;99983.69;5118404;28;20233;-70
2022/05/26 10:01:26;;;;;;;34.90;6.00;;;;;;;34.04;24.50;99996.09;5118292;28;20306;-70
2022/05/26 10:04:06;;;;;;;18.90;4.53;;;;;;;34.04;24.14;99982.38;5066459;28;20060;-71
2022/05/26 10:06:58;;;;;;;19.00;4.82;;;;;;;34.07;23.78;99982.56;5117329;28;20104;-71
2022/05/26 10:09:58;;;;;;;13.13;4.53;;;;;;;34.02;24.22;99981.88;5116119;28;20032;-71
2022/05/26 10:12:41;;;;;;;12.57;4.25;;;;;;;34.09;24.76;99983.06;5116443;28;20392;-71
2022/05/26 10:15:37;;;;;;;33.13;5.15;;;;;;;34.13;24.79;99986.81;5117255;28;20043;-71
2022/05/26 10:18:33;;;;;;;33.08;5.88;;;;;;;34.20;24.98;99981.69;5117920;28;20039;-71
2022/05/26 10:21:15;;;;;;;15.18;4.55;;;;;;;33.75;25.14;99972.56;5117048;28;20199;-71
2022/05/26 10:24:18;;;;;;;18.98;4.70;;;;;;;33.97;25.18;99974.56;5118960;28;20275;-71
2022/05/26 10:27:03;;;;;;;18.67;4.57;;;;;;;33.99;25.01;99977.00;5121155;28;20044;-71
2022/05/26 10:29:37;;;;;;;15.05;4.38;;;;;;;33.96;25.34;99981.19;5121190;28;20368;-71
2022/05/26 10:32:47;;;;;;;20.08;4.90;;;;;;;33.83;25.46;99974.63;5121151;28;20023;-71
2022/05/26 10:35:25;;;;;;;13.07;4.72;;;;;;;33.89;26.63;99956.88;5121911;28;20073;-71
2022/05/26 10:37:58;;;;;;;12.55;4.53;;;;;;;33.89;25.69;99961.56;5121285;28;20126;-71
2022/05/26 10:40:30;;;;;;;14.85;4.57;;;;;;;33.90;25.60;99969.50;5121076;27;20035;-71
2022/05/26 10:42:57;;;;;;;15.38;4.72;;;;;;;34.06;26.45;99953.47;5121360;28;20032;-71
2022/05/26 10:45:37;;;;;;;15.02;4.47;;;;;;;33.76;26.06;99949.47;5122026;28;20085;-71
2022/05/26 10:48:17;;;;;;;53.08;7.78;;;;;;;33.82;26.49;99944.72;5121803;27;20038;-71
2022/05/26 10:50:50;;;;;;;19.55;5.60;;;;;;;33.99;25.89;99944.84;5121058;28;20336;-71
2022/05/26 10:53:23;;;;;;;22.58;5.10;;;;;;;33.95;26.19;99928.16;5121860;28;20069;-71
2022/05/26 10:55:54;;;;;;;18.23;4.47;;;;;;;34.10;24.87;99942.66;5120810;28;20043;-71
2022/05/26 10:58:26;;;;;;;10.98;4.13;;;;;;;33.73;24.75;99935.56;5120681;28;20086;-71
2022/05/26 11:01:01;;;;;;;14.70;4.45;;;;;;;33.17;25.32;99940.31;5120754;28;20032;-71
2022/05/26 11:03:47;;;;;;;17.05;4.70;;;;;;;33.33;25.06;99938.13;5121123;28;20209;-71
2022/05/26 11:06:26;;;;;;;15.93;4.43;;;;;;;33.64;23.95;99932.75;5121762;28;20047;-71
2022/05/26 11:09:17;;;;;;;15.88;3.90;;;;;;;33.73;23.32;99933.63;5121035;28;20367;-71
2022/05/26 11:11:51;;;;;;;11.48;3.80;;;;;;;33.73;23.49;99927.31;5117125;28;20040;-71
2022/05/26 11:18:05;;;;;;;14.13;5.03;;;;;;;33.51;24.35;99909.72;5121365;28;20110;-71
2022/05/26 11:20:38;;;;;;;15.80;4.63;;;;;;;33.75;23.98;99909.41;5120442;28;20035;-71
2022/05/26 11:23:04;;;;;;;13.85;4.40;;;;;;;33.76;23.73;99907.47;5120075;28;20040;-71
2022/05/26 11:25:32;;;;;;;9.32;3.92;;;;;;;34.02;24.67;99913.19;5120921;28;20422;-71
2022/05/26 11:28:07;;;;;;;30.15;4.40;;;;;;;34.09;23.61;99910.81;5120639;28;20055;-71
2022/05/26 11:36:53;;;;;;;15.05;4.45;;;;;;;33.62;23.99;99902.84;5120816;28;20042;-71
2022/05/26 11:39:35;;;;;;;12.90;3.65;;;;;;;33.69;24.46;99896.94;5120749;27;20038;-71
2022/05/26 11:42:07;;;;;;;15.77;3.50;;;;;;;33.69;22.88;99898.88;5119962;28;20023;-71
2022/05/26 11:44:38;;;;;;;15.90;4.68;;;;;;;33.97;24.12;99908.63;5120252;27;20031;-71
2022/05/26 11:47:46;;;;;;;14.98;4.28;;;;;;;34.06;24.42;99906.75;5119438;28;20039;-71
2022/05/26 11:50:41;;;;;;;11.93;3.83;;;;;;;34.05;23.86;99901.56;5112227;28;20035;-71
2022/05/26 11:53:11;;;;;;;15.77;3.92;;;;;;;34.02;24.56;99899.44;5119274;28;21099;-71
2022/05/26 11:56:03;;;;;;;17.50;4.40;;;;;;;33.32;24.47;99884.34;5119515;28;20094;-71
2022/05/26 11:58:41;;;;;;;19.92;4.07;;;;;;;33.04;24.93;99891.78;5119401;28;20360;-71
2022/05/26 12:01:32;;;;;;;12.68;4.10;;;;;;;33.28;24.84;99888.78;5119480;28;20137;-71
2022/05/26 12:03:59;;;;;;;11.15;3.70;;;;;;;33.57;23.91;99878.25;5120277;28;20027;-71
2022/05/26 12:06:36;;;;;;;12.50;4.07;;;;;;;33.69;24.52;99872.22;5119442;28;20036;-71
2022/05/26 12:09:11;;;;;;;18.58;4.20;;;;;;;33.74;24.63;99871.28;5118023;28;20043;-71
2022/05/26 12:12:13;;;;;;;12.57;3.70;;;;;;;33.67;25.10;99870.91;5118629;28;20055;-72
2022/05/26 12:14:54;;;;;;;13.45;3.53;;;;;;;33.64;24.93;99866.84;5119975;28;20570;-71
2022/05/26 12:17:38;;;;;;;12.73;3.67;;;;;;;33.70;22.39;99870.28;5119070;28;20096;-71
2022/05/26 12:20:10;;;;;;;11.43;3.83;;;;;;;33.22;23.39;99868.06;5119227;28;20051;-72